Impacts METAR Board INFO
IDs:

KSAN - San Diego Intl Arpt, CA, US

Updated at: 0851 UTC 18 Dec 2017
Potential Impact None Slight Moderate High
Time17/20Z 17/21Z 17/22Z 17/23Z 18/00Z 18/01Z 18/02Z 18/03Z 18/04Z 18/05Z 18/06Z 18/07Z 18/08Z
VIS10 10 10 10 10 10 10 10 10 10 10 10 10
CIG-- -- -- -- -- -- -- -- -- -- -- -- --
CoverCLRCLRCLRCLRCLRCLRCLRCLRCLRCLRCLRCLRCLR
FltCatVFRVFRVFRVFRVFRVFRVFRVFRVFRVFRVFRVFRVFR
WX--------------------------
WDir250230030032032035020120110000
WSpd4 7 5 6 6 5 5 6 3 4 0 0 0
WGst-- -- -- -- -- -- -- -- -- -- -- -- --
Raw hourly METARs
KSAN 171951Z 25004KT 10SM CLR 20/01 A2990 RMK AO2 SLP123 T02000011
KSAN 172051Z 23007KT 10SM CLR 22/00 A2989 RMK AO2 SLP120 T02170000 58011
KSAN 172151Z VRB05KT 10SM CLR 20/06 A2990 RMK AO2 SLP124 T02000056
KSAN 172251Z 30006KT 10SM CLR 20/03 A2992 RMK AO2 SLP130 T02000033
KSAN 172351Z 32006KT 10SM CLR 19/02 A2993 RMK AO2 SLP136 T01940017 10217 20150 53015
KSAN 180051Z 32005KT 10SM CLR 18/04 A2994 RMK AO2 SLP139 T01830039
KSAN 180151Z 35005KT 10SM CLR 18/02 A2998 RMK AO2 SLP151 T01780022
KSAN 180251Z 02006KT 10SM CLR 17/04 A3000 RMK AO2 SLP159 T01720044 53023
KSAN 180351Z 12003KT 10SM CLR 17/04 A3002 RMK AO2 SLP166 T01720039
KSAN 180451Z 11004KT 10SM CLR 16/01 A3003 RMK AO2 SLP167 T01560011
KSAN 180551Z 00000KT 10SM CLR 14/00 A3004 RMK AO2 SLP173 T01390000 10194 20139 51014
KSAN 180651Z 00000KT 10SM CLR 13/M01 A3005 RMK AO2 SLP176 T01331011
KSAN 180751Z 00000KT 10SM CLR 13/M02 A3006 RMK AO2 SLP180 T01281022 402170100